sensor_id;sensor_type;location;lat;lon;timestamp;pressure;altitude;pressure_sealevel;temperature;humidity
27040;BME280;14589;51.578;7.306;2023-04-06T05:01:38;101227.22;;;-1.04;79.49
27040;BME280;14589;51.578;7.306;2023-04-06T05:04:09;101226.34;;;-1.05;79.58
27040;BME280;14589;51.578;7.306;2023-04-06T05:06:40;101223.50;;;-1.00;80.13
27040;BME280;14589;51.578;7.306;2023-04-06T05:09:11;101225.25;;;-0.99;79.84
27040;BME280;14589;51.578;7.306;2023-04-06T05:11:45;101224.44;;;-1.01;79.89
27040;BME280;14589;51.578;7.306;2023-04-06T05:14:16;101226.19;;;-1.00;80.32
27040;BME280;14589;51.578;7.306;2023-04-06T05:16:47;101223.31;;;-0.96;79.84
27040;BME280;14589;51.578;7.306;2023-04-06T05:19:18;101205.00;;;-1.03;80.17
27040;BME280;14589;51.578;7.306;2023-04-06T05:21:50;101220.44;;;-0.91;79.85
27040;BME280;14589;51.578;7.306;2023-04-06T05:24:20;101231.75;;;-0.86;79.95
27040;BME280;14589;51.578;7.306;2023-04-06T05:26:52;101229.91;;;-0.84;80.09
27040;BME280;14589;51.578;7.306;2023-04-06T05:29:26;101225.41;;;-0.82;80.03
27040;BME280;14589;51.578;7.306;2023-04-06T05:31:57;101228.84;;;-0.80;80.19
27040;BME280;14589;51.578;7.306;2023-04-06T05:34:29;101221.56;;;-0.75;80.65
27040;BME280;14589;51.578;7.306;2023-04-06T05:37:01;101229.19;;;-0.67;80.13
27040;BME280;14589;51.578;7.306;2023-04-06T05:39:32;101230.94;;;-0.66;79.67
27040;BME280;14589;51.578;7.306;2023-04-06T05:42:04;101228.22;;;-0.65;79.94
27040;BME280;14589;51.578;7.306;2023-04-06T05:44:50;101215.50;;;-0.58;79.95
27040;BME280;14589;51.578;7.306;2023-04-06T05:47:24;101217.34;;;-0.60;80.02
27040;BME280;14589;51.578;7.306;2023-04-06T05:50:03;101226.69;;;-0.50;80.12
27040;BME280;14589;51.578;7.306;2023-04-06T05:52:40;101223.75;;;-0.44;79.86
27040;BME280;14589;51.578;7.306;2023-04-06T05:55:15;101226.00;;;-0.35;80.08
27040;BME280;14589;51.578;7.306;2023-04-06T05:57:50;101226.00;;;-0.35;79.73
27040;BME280;14589;51.578;7.306;2023-04-06T06:00:22;101232.09;;;-0.31;79.96
27040;BME280;14589;51.578;7.306;2023-04-06T06:03:03;101219.16;;;-0.20;79.91
27040;BME280;14589;51.578;7.306;2023-04-06T06:05:35;101226.06;;;-0.16;79.42
27040;BME280;14589;51.578;7.306;2023-04-06T06:08:21;101228.44;;;-0.10;79.67
27040;BME280;14589;51.578;7.306;2023-04-06T06:10:55;101220.97;;;-0.02;79.84
27040;BME280;14589;51.578;7.306;2023-04-06T06:13:27;101227.66;;;0.07;79.42
27040;BME280;14589;51.578;7.306;2023-04-06T06:16:00;101212.53;;;0.07;79.55
27040;BME280;14589;51.578;7.306;2023-04-06T06:18:36;101220.66;;;0.24;79.39
27040;BME280;14589;51.578;7.306;2023-04-06T06:21:07;101235.06;;;0.39;78.99
27040;BME280;14589;51.578;7.306;2023-04-06T06:23:39;101211.69;;;0.44;79.36
27040;BME280;14589;51.578;7.306;2023-04-06T06:26:10;101221.66;;;0.59;78.68
27040;BME280;14589;51.578;7.306;2023-04-06T06:28:41;101220.88;;;0.74;79.52
27040;BME280;14589;51.578;7.306;2023-04-06T06:31:13;101222.94;;;0.87;79.13
27040;BME280;14589;51.578;7.306;2023-04-06T06:33:44;101219.59;;;1.00;79.01
27040;BME280;14589;51.578;7.306;2023-04-06T06:36:16;101225.94;;;1.16;78.97
27040;BME280;14589;51.578;7.306;2023-04-06T06:38:48;101205.03;;;1.25;79.44
27040;BME280;14589;51.578;7.306;2023-04-06T06:41:21;101222.78;;;1.43;78.63
27040;BME280;14589;51.578;7.306;2023-04-06T06:43:52;101218.41;;;1.59;78.99
27040;BME280;14589;51.578;7.306;2023-04-06T06:46:23;101224.19;;;1.84;78.55
27040;BME280;14589;51.578;7.306;2023-04-06T06:48:54;101209.31;;;2.12;77.29
27040;BME280;14589;51.578;7.306;2023-04-06T06:51:25;101214.91;;;2.40;76.78
27040;BME280;14589;51.578;7.306;2023-04-06T06:53:56;101207.81;;;2.70;74.13
27040;BME280;14589;51.578;7.306;2023-04-06T06:56:27;101205.63;;;3.08;70.15
27040;BME280;14589;51.578;7.306;2023-04-06T06:58:58;101208.66;;;3.32;71.02
27040;BME280;14589;51.578;7.306;2023-04-06T07:01:28;101198.88;;;3.61;69.42
27040;BME280;14589;51.578;7.306;2023-04-06T07:03:59;101203.78;;;3.97;69.18
27040;BME280;14589;51.578;7.306;2023-04-06T07:06:30;101202.16;;;4.23;65.65
27040;BME280;14589;51.578;7.306;2023-04-06T07:09:01;101210.84;;;4.55;66.19
27040;BME280;14589;51.578;7.306;2023-04-06T07:11:33;101190.56;;;4.77;65.39
27040;BME280;14589;51.578;7.306;2023-04-06T07:14:03;101191.03;;;5.11;60.56
27040;BME280;14589;51.578;7.306;2023-04-06T07:16:33;101195.59;;;5.36;59.59
27040;BME280;14589;51.578;7.306;2023-04-06T07:19:04;101189.50;;;5.59;57.47
27040;BME280;14589;51.578;7.306;2023-04-06T07:21:34;101184.25;;;5.83;56.44
27040;BME280;14589;51.578;7.306;2023-04-06T07:24:05;101192.88;;;6.00;56.65
27040;BME280;14589;51.578;7.306;2023-04-06T07:26:36;101193.63;;;6.28;54.90
27040;BME280;14589;51.578;7.306;2023-04-06T07:29:08;101178.84;;;6.46;50.93
27040;BME280;14589;51.578;7.306;2023-04-06T07:31:39;101200.44;;;6.70;52.35
27040;BME280;14589;51.578;7.306;2023-04-06T07:34:10;101182.44;;;6.94;51.01
27040;BME280;14589;51.578;7.306;2023-04-06T07:36:42;101189.25;;;7.11;50.18
27040;BME280;14589;51.578;7.306;2023-04-06T07:39:13;101179.44;;;7.34;50.25
27040;BME280;14589;51.578;7.306;2023-04-06T07:41:44;101180.38;;;7.67;49.40
27040;BME280;14589;51.578;7.306;2023-04-06T07:44:15;101171.22;;;7.81;47.59
27040;BME280;14589;51.578;7.306;2023-04-06T07:46:45;101172.84;;;8.06;46.47
27040;BME280;14589;51.578;7.306;2023-04-06T07:49:16;101179.59;;;8.23;46.05
27040;BME280;14589;51.578;7.306;2023-04-06T07:51:47;101174.81;;;8.48;45.18
27040;BME280;14589;51.578;7.306;2023-04-06T07:54:18;101179.72;;;8.66;44.59
27040;BME280;14589;51.578;7.306;2023-04-06T07:56:49;101177.59;;;8.80;43.26
27040;BME280;14589;51.578;7.306;2023-04-06T07:59:19;101158.56;;;8.82;41.94
27040;BME280;14589;51.578;7.306;2023-04-06T08:01:50;101168.25;;;9.16;42.70
27040;BME280;14589;51.578;7.306;2023-04-06T08:04:20;101165.38;;;9.29;41.38
27040;BME280;14589;51.578;7.306;2023-04-06T08:06:50;101163.16;;;9.55;42.86
27040;BME280;14589;51.578;7.306;2023-04-06T08:09:21;101172.47;;;9.83;41.69
27040;BME280;14589;51.578;7.306;2023-04-06T08:11:51;101160.44;;;9.96;41.20
27040;BME280;14589;51.578;7.306;2023-04-06T08:14:21;101173.31;;;10.04;40.83
27040;BME280;14589;51.578;7.306;2023-04-06T08:16:52;101171.13;;;10.19;39.44
27040;BME280;14589;51.578;7.306;2023-04-06T08:19:23;101162.63;;;10.33;39.83
27040;BME280;14589;51.578;7.306;2023-04-06T08:21:53;101161.28;;;10.48;38.42
27040;BME280;14589;51.578;7.306;2023-04-06T08:24:23;101168.44;;;10.68;38.09
27040;BME280;14589;51.578;7.306;2023-04-06T08:26:54;101163.94;;;10.88;38.54
27040;BME280;14589;51.578;7.306;2023-04-06T08:29:24;101161.09;;;11.09;37.76
27040;BME280;14589;51.578;7.306;2023-04-06T08:31:55;101166.81;;;11.25;36.43
27040;BME280;14589;51.578;7.306;2023-04-06T08:34:25;101152.97;;;11.28;35.38
27040;BME280;14589;51.578;7.306;2023-04-06T08:36:56;101154.53;;;11.40;34.97
27040;BME280;14589;51.578;7.306;2023-04-06T08:39:27;101144.53;;;11.60;34.93
27040;BME280;14589;51.578;7.306;2023-04-06T08:41:58;101158.66;;;11.83;35.32
27040;BME280;14589;51.578;7.306;2023-04-06T08:44:31;101158.22;;;11.97;34.55
27040;BME280;14589;51.578;7.306;2023-04-06T08:47:02;101149.53;;;12.21;34.70
27040;BME280;14589;51.578;7.306;2023-04-06T08:49:37;101151.47;;;12.38;33.94
27040;BME280;14589;51.578;7.306;2023-04-06T08:52:07;101147.47;;;12.60;33.65
27040;BME280;14589;51.578;7.306;2023-04-06T08:54:38;101138.34;;;12.78;32.81
27040;BME280;14589;51.578;7.306;2023-04-06T08:57:09;101136.97;;;12.92;32.49
27040;BME280;14589;51.578;7.306;2023-04-06T08:59:40;101137.81;;;13.20;32.28
27040;BME280;14589;51.578;7.306;2023-04-06T09:02:15;101131.97;;;13.32;31.50
27040;BME280;14589;51.578;7.306;2023-04-06T09:04:53;101143.22;;;13.55;31.20
27040;BME280;14589;51.578;7.306;2023-04-06T09:07:24;101133.25;;;13.64;30.77
27040;BME280;14589;51.578;7.306;2023-04-06T09:09:55;101141.91;;;13.85;30.16
27040;BME280;14589;51.578;7.306;2023-04-06T09:12:27;101145.72;;;13.92;31.25
27040;BME280;14589;51.578;7.306;2023-04-06T09:14:59;101128.19;;;13.95;30.53
27040;BME280;14589;51.578;7.306;2023-04-06T09:17:31;101128.69;;;13.72;30.16
27040;BME280;14589;51.578;7.306;2023-04-06T09:20:05;101132.81;;;14.02;30.68
27040;BME280;14589;51.578;7.306;2023-04-06T09:22:39;101120.84;;;13.95;30.31
27040;BME280;14589;51.578;7.306;2023-04-06T09:25:18;101126.72;;;14.08;29.95
27040;BME280;14589;51.578;7.306;2023-04-06T09:27:59;101114.91;;;14.26;30.54
27040;BME280;14589;51.578;7.306;2023-04-06T09:30:30;101127.19;;;14.30;29.41
27040;BME280;14589;51.578;7.306;2023-04-06T09:33:00;101113.47;;;14.47;29.55
27040;BME280;14589;51.578;7.306;2023-04-06T09:35:31;101118.44;;;14.52;29.07
27040;BME280;14589;51.578;7.306;2023-04-06T09:38:10;101106.88;;;14.66;28.36
27040;BME280;14589;51.578;7.306;2023-04-06T09:40:51;101115.22;;;14.65;28.50
27040;BME280;14589;51.578;7.306;2023-04-06T09:43:26;101114.06;;;14.33;28.02
27040;BME280;14589;51.578;7.306;2023-04-06T09:45:58;101111.56;;;14.40;28.69
27040;BME280;14589;51.578;7.306;2023-04-06T09:48:30;101110.69;;;14.39;28.48
27040;BME280;14589;51.578;7.306;2023-04-06T09:51:03;101100.53;;;14.49;28.94
27040;BME280;14589;51.578;7.306;2023-04-06T09:53:37;101109.59;;;14.58;28.06
27040;BME280;14589;51.578;7.306;2023-04-06T09:56:11;101110.31;;;14.68;28.31
27040;BME280;14589;51.578;7.306;2023-04-06T09:58:45;101114.69;;;14.53;27.76
27040;BME280;14589;51.578;7.306;2023-04-06T10:01:18;101105.44;;;14.46;28.09
27040;BME280;14589;51.578;7.306;2023-04-06T10:06:47;101108.81;;;14.90;28.34
27040;BME280;14589;51.578;7.306;2023-04-06T10:09:25;101095.72;;;15.10;28.54
27040;BME280;14589;51.578;7.306;2023-04-06T10:11:58;101103.44;;;15.30;26.81
27040;BME280;14589;51.578;7.306;2023-04-06T10:14:28;101100.31;;;15.25;27.61
27040;BME280;14589;51.578;7.306;2023-04-06T10:17:00;101096.41;;;15.36;27.28
27040;BME280;14589;51.578;7.306;2023-04-06T10:22:08;101099.16;;;15.52;27.21
27040;BME280;14589;51.578;7.306;2023-04-06T10:24:39;101096.59;;;15.67;27.48
27040;BME280;14589;51.578;7.306;2023-04-06T10:27:09;101092.97;;;15.83;27.08
27040;BME280;14589;51.578;7.306;2023-04-06T10:29:45;101101.53;;;15.63;26.90
27040;BME280;14589;51.578;7.306;2023-04-06T10:32:18;101104.94;;;15.82;27.07
27040;BME280;14589;51.578;7.306;2023-04-06T10:34:49;101104.06;;;15.81;26.93
27040;BME280;14589;51.578;7.306;2023-04-06T10:37:19;101103.22;;;15.97;26.73
27040;BME280;14589;51.578;7.306;2023-04-06T10:39:53;101098.38;;;16.07;26.79
27040;BME280;14589;51.578;7.306;2023-04-06T10:42:36;101104.88;;;16.14;26.68
27040;BME280;14589;51.578;7.306;2023-04-06T10:45:18;101093.84;;;16.30;26.20
27040;BME280;14589;51.578;7.306;2023-04-06T10:47:49;101088.78;;;16.66;26.63
27040;BME280;14589;51.578;7.306;2023-04-06T10:50:22;101092.81;;;16.78;25.78
27040;BME280;14589;51.578;7.306;2023-04-06T10:53:00;101079.13;;;16.31;26.00
27040;BME280;14589;51.578;7.306;2023-04-06T10:55:31;101079.38;;;16.61;26.71
27040;BME280;14589;51.578;7.306;2023-04-06T10:58:01;101070.81;;;16.55;26.54
27040;BME280;14589;51.578;7.306;2023-04-06T11:00:32;101073.38;;;16.57;26.24
27040;BME280;14589;51.578;7.306;2023-04-06T11:03:02;101074.94;;;16.60;26.98
27040;BME280;14589;51.578;7.306;2023-04-06T11:05:33;101065.50;;;16.62;26.75
27040;BME280;14589;51.578;7.306;2023-04-06T11:08:03;101068.63;;;16.51;26.07
27040;BME280;14589;51.578;7.306;2023-04-06T11:10:34;101053.41;;;16.79;26.83
27040;BME280;14589;51.578;7.306;2023-04-06T11:13:04;101059.22;;;16.84;25.84
27040;BME280;14589;51.578;7.306;2023-04-06T11:15:35;101062.00;;;16.99;24.62
27040;BME280;14589;51.578;7.306;2023-04-06T11:18:06;101068.69;;;16.74;23.67
27040;BME280;14589;51.578;7.306;2023-04-06T11:20:36;101059.69;;;16.88;24.46
27040;BME280;14589;51.578;7.306;2023-04-06T11:23:06;101060.03;;;16.62;24.11
27040;BME280;14589;51.578;7.306;2023-04-06T11:25:37;101063.22;;;16.74;24.60
27040;BME280;14589;51.578;7.306;2023-04-06T11:28:07;101054.78;;;16.83;24.23
27040;BME280;14589;51.578;7.306;2023-04-06T11:30:38;101047.94;;;16.79;24.54
27040;BME280;14589;51.578;7.306;2023-04-06T11:33:08;101042.41;;;17.10;24.20
27040;BME280;14589;51.578;7.306;2023-04-06T11:35:38;101058.97;;;17.17;23.62
27040;BME280;14589;51.578;7.306;2023-04-06T11:38:09;101052.50;;;17.10;23.58
27040;BME280;14589;51.578;7.306;2023-04-06T11:40:39;101043.25;;;16.88;24.37
27040;BME280;14589;51.578;7.306;2023-04-06T11:43:13;101047.69;;;17.12;24.57
27040;BME280;14589;51.578;7.306;2023-04-06T11:45:43;101030.97;;;17.07;24.50
27040;BME280;14589;51.578;7.306;2023-04-06T11:48:18;101038.69;;;17.40;24.32
27040;BME280;14589;51.578;7.306;2023-04-06T11:50:55;101041.84;;;17.37;23.82
27040;BME280;14589;51.578;7.306;2023-04-06T11:53:29;101043.19;;;17.56;24.65
27040;BME280;14589;51.578;7.306;2023-04-06T11:56:00;101035.66;;;17.73;25.29
27040;BME280;14589;51.578;7.306;2023-04-06T11:58:30;101034.78;;;17.58;25.69
27040;BME280;14589;51.578;7.306;2023-04-06T12:01:04;101020.44;;;17.85;24.60
27040;BME280;14589;51.578;7.306;2023-04-06T12:03:35;101026.69;;;17.79;25.27
27040;BME280;14589;51.578;7.306;2023-04-06T12:06:05;101015.34;;;17.67;24.60
27040;BME280;14589;51.578;7.306;2023-04-06T12:08:35;101025.75;;;18.01;25.75
27040;BME280;14589;51.578;7.306;2023-04-06T12:11:06;101020.38;;;18.08;25.96
27040;BME280;14589;51.578;7.306;2023-04-06T12:13:37;101016.56;;;17.79;25.31
27040;BME280;14589;51.578;7.306;2023-04-06T12:16:07;101026.16;;;17.84;25.90
27040;BME280;14589;51.578;7.306;2023-04-06T12:18:38;101019.22;;;17.73;25.45
27040;BME280;14589;51.578;7.306;2023-04-06T12:21:08;101017.72;;;17.70;25.43
27040;BME280;14589;51.578;7.306;2023-04-06T12:23:38;101008.72;;;17.91;25.86
27040;BME280;14589;51.578;7.306;2023-04-06T12:26:09;101024.69;;;18.02;25.28
27040;BME280;14589;51.578;7.306;2023-04-06T12:28:39;101017.22;;;18.26;25.43
27040;BME280;14589;51.578;7.306;2023-04-06T12:31:21;101009.59;;;18.57;25.48
27040;BME280;14589;51.578;7.306;2023-04-06T12:33:51;101009.44;;;18.80;24.71
27040;BME280;14589;51.578;7.306;2023-04-06T12:36:22;101015.91;;;18.93;24.52
27040;BME280;14589;51.578;7.306;2023-04-06T12:38:53;101006.22;;;18.97;24.63
27040;BME280;14589;51.578;7.306;2023-04-06T12:41:23;100994.66;;;18.45;24.61
27040;BME280;14589;51.578;7.306;2023-04-06T12:43:55;101012.69;;;18.69;24.93
27040;BME280;14589;51.578;7.306;2023-04-06T12:46:25;101010.63;;;18.41;25.14
27040;BME280;14589;51.578;7.306;2023-04-06T12:48:56;101005.22;;;18.48;24.93
27040;BME280;14589;51.578;7.306;2023-04-06T12:51:27;101004.38;;;18.47;25.04
27040;BME280;14589;51.578;7.306;2023-04-06T12:53:58;100996.47;;;18.74;26.34
27040;BME280;14589;51.578;7.306;2023-04-06T12:56:28;101013.41;;;18.98;25.23
27040;BME280;14589;51.578;7.306;2023-04-06T12:58:58;101005.31;;;19.12;25.18
27040;BME280;14589;51.578;7.306;2023-04-06T13:01:29;101007.44;;;19.16;24.99
27040;BME280;14589;51.578;7.306;2023-04-06T13:03:59;101003.53;;;18.83;24.94
27040;BME280;14589;51.578;7.306;2023-04-06T13:06:30;101000.06;;;19.17;25.27
27040;BME280;14589;51.578;7.306;2023-04-06T13:09:00;101002.41;;;19.20;25.30
27040;BME280;14589;51.578;7.306;2023-04-06T13:11:31;101001.69;;;19.11;25.23
27040;BME280;14589;51.578;7.306;2023-04-06T13:14:01;100994.84;;;19.01;24.72
27040;BME280;14589;51.578;7.306;2023-04-06T13:16:31;101003.97;;;19.08;25.37
27040;BME280;14589;51.578;7.306;2023-04-06T13:19:02;100991.81;;;18.95;25.19
27040;BME280;14589;51.578;7.306;2023-04-06T13:21:32;100992.75;;;18.81;25.82
27040;BME280;14589;51.578;7.306;2023-04-06T13:24:03;100989.53;;;18.78;25.88
27040;BME280;14589;51.578;7.306;2023-04-06T13:26:35;100993.97;;;18.57;25.81
27040;BME280;14589;51.578;7.306;2023-04-06T13:29:06;101001.72;;;18.54;26.24
27040;BME280;14589;51.578;7.306;2023-04-06T13:31:37;100993.13;;;18.42;26.72
27040;BME280;14589;51.578;7.306;2023-04-06T13:34:08;100989.97;;;18.09;26.98
27040;BME280;14589;51.578;7.306;2023-04-06T13:36:39;100991.88;;;17.94;27.47
27040;BME280;14589;51.578;7.306;2023-04-06T13:39:11;100994.63;;;17.79;27.87
27040;BME280;14589;51.578;7.306;2023-04-06T13:41:42;100994.25;;;17.83;27.29
27040;BME280;14589;51.578;7.306;2023-04-06T13:44:12;100995.47;;;17.80;26.92
27040;BME280;14589;51.578;7.306;2023-04-06T13:46:42;100992.41;;;17.46;28.49
27040;BME280;14589;51.578;7.306;2023-04-06T13:49:13;100994.88;;;17.18;28.38
27040;BME280;14589;51.578;7.306;2023-04-06T13:51:44;100989.06;;;16.98;28.39
27040;BME280;14589;51.578;7.306;2023-04-06T13:54:14;100991.41;;;16.25;29.17
27040;BME280;14589;51.578;7.306;2023-04-06T13:56:44;100999.91;;;16.69;29.34
27040;BME280;14589;51.578;7.306;2023-04-06T13:59:15;100993.56;;;16.68;30.22
27040;BME280;14589;51.578;7.306;2023-04-06T14:01:45;100986.25;;;16.61;30.45
27040;BME280;14589;51.578;7.306;2023-04-06T14:04:16;100989.75;;;16.77;29.99
27040;BME280;14589;51.578;7.306;2023-04-06T14:06:46;100988.22;;;16.75;29.86
27040;BME280;14589;51.578;7.306;2023-04-06T14:09:16;100994.16;;;16.55;30.09
27040;BME280;14589;51.578;7.306;2023-04-06T14:11:47;100997.88;;;16.32;30.46
27040;BME280;14589;51.578;7.306;2023-04-06T14:14:18;100989.78;;;16.46;30.38
27040;BME280;14589;51.578;7.306;2023-04-06T14:16:48;100990.44;;;16.17;30.83
27040;BME280;14589;51.578;7.306;2023-04-06T14:19:19;100999.03;;;16.06;31.55
27040;BME280;14589;51.578;7.306;2023-04-06T14:21:53;101007.16;;;15.92;32.17
27040;BME280;14589;51.578;7.306;2023-04-06T14:24:23;100995.50;;;15.98;32.18
27040;BME280;14589;51.578;7.306;2023-04-06T14:26:54;101002.00;;;15.97;32.56
27040;BME280;14589;51.578;7.306;2023-04-06T14:29:24;100995.88;;;15.87;33.12
27040;BME280;14589;51.578;7.306;2023-04-06T14:31:54;101005.13;;;15.77;33.59
27040;BME280;14589;51.578;7.306;2023-04-06T14:34:29;101010.66;;;15.61;34.22
27040;BME280;14589;51.578;7.306;2023-04-06T14:37:00;101002.66;;;15.27;37.32
27040;BME280;14589;51.578;7.306;2023-04-06T14:39:30;100996.84;;;15.14;37.20
27040;BME280;14589;51.578;7.306;2023-04-06T14:42:01;101007.25;;;15.19;36.86
27040;BME280;14589;51.578;7.306;2023-04-06T14:44:33;100993.44;;;15.12;37.30
27040;BME280;14589;51.578;7.306;2023-04-06T14:47:04;100998.06;;;14.95;36.78
27040;BME280;14589;51.578;7.306;2023-04-06T14:49:35;100996.53;;;14.85;36.45
27040;BME280;14589;51.578;7.306;2023-04-06T14:52:05;100995.47;;;14.70;36.75
27040;BME280;14589;51.578;7.306;2023-04-06T14:54:36;100989.16;;;14.53;37.20
27040;BME280;14589;51.578;7.306;2023-04-06T14:57:06;101004.81;;;14.51;37.34
27040;BME280;14589;51.578;7.306;2023-04-06T14:59:37;100989.66;;;14.56;37.34
27040;BME280;14589;51.578;7.306;2023-04-06T15:02:07;100994.44;;;14.54;37.61
27040;BME280;14589;51.578;7.306;2023-04-06T15:04:38;100993.78;;;14.61;38.18
27040;BME280;14589;51.578;7.306;2023-04-06T15:07:09;100987.28;;;14.62;38.98
27040;BME280;14589;51.578;7.306;2023-04-06T15:09:41;101000.75;;;14.55;39.12
27040;BME280;14589;51.578;7.306;2023-04-06T15:12:11;101002.28;;;14.57;39.77
27040;BME280;14589;51.578;7.306;2023-04-06T15:14:41;100993.59;;;14.54;40.13
27040;BME280;14589;51.578;7.306;2023-04-06T15:17:12;100991.50;;;14.40;41.44
27040;BME280;14589;51.578;7.306;2023-04-06T15:19:42;100991.47;;;14.32;41.90
27040;BME280;14589;51.578;7.306;2023-04-06T15:22:12;100995.34;;;14.13;43.13
27040;BME280;14589;51.578;7.306;2023-04-06T15:24:43;100989.69;;;14.06;43.86
27040;BME280;14589;51.578;7.306;2023-04-06T15:27:13;101001.25;;;14.00;43.94
27040;BME280;14589;51.578;7.306;2023-04-06T15:29:43;101006.59;;;13.76;44.34
27040;BME280;14589;51.578;7.306;2023-04-06T15:32:14;101000.44;;;13.74;44.83
27040;BME280;14589;51.578;7.306;2023-04-06T15:34:44;101004.47;;;13.62;44.92
27040;BME280;14589;51.578;7.306;2023-04-06T15:37:15;101008.56;;;13.40;45.83
27040;BME280;14589;51.578;7.306;2023-04-06T15:39:45;100989.84;;;13.37;46.44
27040;BME280;14589;51.578;7.306;2023-04-06T15:42:16;100988.47;;;13.15;47.18
27040;BME280;14589;51.578;7.306;2023-04-06T15:44:46;100994.53;;;13.09;47.89
27040;BME280;14589;51.578;7.306;2023-04-06T15:47:16;101002.81;;;13.00;50.56
27040;BME280;14589;51.578;7.306;2023-04-06T15:49:47;100995.78;;;12.97;51.11
27040;BME280;14589;51.578;7.306;2023-04-06T15:52:17;100991.63;;;12.85;50.05
27040;BME280;14589;51.578;7.306;2023-04-06T15:54:48;101003.22;;;12.87;50.25
27040;BME280;14589;51.578;7.306;2023-04-06T15:57:18;101007.41;;;12.81;50.58
27040;BME280;14589;51.578;7.306;2023-04-06T15:59:49;101001.97;;;12.64;50.62
27040;BME280;14589;51.578;7.306;2023-04-06T16:02:20;100995.97;;;12.60;52.12
27040;BME280;14589;51.578;7.306;2023-04-06T16:04:56;101004.75;;;12.54;52.71
27040;BME280;14589;51.578;7.306;2023-04-06T16:07:27;101003.13;;;12.43;53.15
27040;BME280;14589;51.578;7.306;2023-04-06T16:09:58;101011.56;;;12.23;52.73
27040;BME280;14589;51.578;7.306;2023-04-06T16:12:28;101004.63;;;12.10;53.10
27040;BME280;14589;51.578;7.306;2023-04-06T16:14:58;100996.94;;;12.06;53.55
27040;BME280;14589;51.578;7.306;2023-04-06T16:17:29;101000.34;;;12.08;55.63
27040;BME280;14589;51.578;7.306;2023-04-06T16:20:00;100999.25;;;12.01;56.09
27040;BME280;14589;51.578;7.306;2023-04-06T16:22:30;100993.41;;;11.96;55.25
27040;BME280;14589;51.578;7.306;2023-04-06T16:25:01;101005.03;;;11.88;55.43
27040;BME280;14589;51.578;7.306;2023-04-06T16:27:32;101011.94;;;11.83;56.75
27040;BME280;14589;51.578;7.306;2023-04-06T16:30:03;101002.22;;;11.70;56.37
27040;BME280;14589;51.578;7.306;2023-04-06T16:32:34;101005.53;;;11.64;55.88
27040;BME280;14589;51.578;7.306;2023-04-06T16:35:05;101006.72;;;11.52;53.62
27040;BME280;14589;51.578;7.306;2023-04-06T16:37:35;101015.47;;;11.46;54.47
27040;BME280;14589;51.578;7.306;2023-04-06T16:40:06;101009.91;;;11.48;56.01
27040;BME280;14589;51.578;7.306;2023-04-06T16:42:37;101006.91;;;11.41;55.99
27040;BME280;14589;51.578;7.306;2023-04-06T16:45:08;101021.50;;;11.30;57.02
27040;BME280;14589;51.578;7.306;2023-04-06T16:47:38;101018.50;;;11.24;58.15
27040;BME280;14589;51.578;7.306;2023-04-06T16:50:09;101023.66;;;11.17;59.06
27040;BME280;14589;51.578;7.306;2023-04-06T16:52:40;101021.28;;;11.05;59.87
27040;BME280;14589;51.578;7.306;2023-04-06T16:55:11;101026.84;;;10.93;61.13
27040;BME280;14589;51.578;7.306;2023-04-06T16:57:41;101020.56;;;10.83;61.27
27040;BME280;14589;51.578;7.306;2023-04-06T17:00:12;101032.84;;;10.68;63.23
27040;BME280;14589;51.578;7.306;2023-04-06T17:02:45;101030.84;;;10.70;63.51
27040;BME280;14589;51.578;7.306;2023-04-06T17:05:16;101027.41;;;10.59;64.66
27040;BME280;14589;51.578;7.306;2023-04-06T17:07:51;101028.53;;;10.56;64.46
27040;BME280;14589;51.578;7.306;2023-04-06T17:10:22;101027.41;;;10.49;66.17
27040;BME280;14589;51.578;7.306;2023-04-06T17:12:52;101037.38;;;10.39;65.29
27040;BME280;14589;51.578;7.306;2023-04-06T17:15:22;101018.97;;;10.23;66.46
27040;BME280;14589;51.578;7.306;2023-04-06T17:17:57;101037.94;;;10.23;68.02
27040;BME280;14589;51.578;7.306;2023-04-06T17:20:27;101026.16;;;10.13;68.38
27040;BME280;14589;51.578;7.306;2023-04-06T17:22:58;101043.03;;;10.17;68.65
27040;BME280;14589;51.578;7.306;2023-04-06T17:25:28;101046.81;;;10.04;69.42
27040;BME280;14589;51.578;7.306;2023-04-06T17:27:58;101041.78;;;10.00;69.75
27040;BME280;14589;51.578;7.306;2023-04-06T17:30:29;101051.34;;;9.94;70.58
27040;BME280;14589;51.578;7.306;2023-04-06T17:33:00;101041.91;;;9.89;70.60
27040;BME280;14589;51.578;7.306;2023-04-06T17:35:30;101034.50;;;9.81;71.75
27040;BME280;14589;51.578;7.306;2023-04-06T17:38:01;101047.00;;;9.82;71.77
27040;BME280;14589;51.578;7.306;2023-04-06T17:40:32;101055.09;;;9.72;72.88
27040;BME280;14589;51.578;7.306;2023-04-06T17:43:03;101043.66;;;9.69;72.55
27040;BME280;14589;51.578;7.306;2023-04-06T17:45:34;101049.63;;;9.63;73.38
27040;BME280;14589;51.578;7.306;2023-04-06T17:48:04;101048.38;;;9.67;73.96
27040;BME280;14589;51.578;7.306;2023-04-06T17:50:38;101053.91;;;9.65;74.32
27040;BME280;14589;51.578;7.306;2023-04-06T17:53:08;101044.50;;;9.60;74.46
27040;BME280;14589;51.578;7.306;2023-04-06T17:55:39;101039.16;;;9.49;74.19
27040;BME280;14589;51.578;7.306;2023-04-06T17:58:09;101054.75;;;9.56;75.19
27040;BME280;14589;51.578;7.306;2023-04-06T18:00:40;101043.59;;;9.50;75.19
27040;BME280;14589;51.578;7.306;2023-04-06T18:03:10;101063.22;;;9.42;74.95
27040;BME280;14589;51.578;7.306;2023-04-06T18:05:41;101048.59;;;9.33;75.80
27040;BME280;14589;51.578;7.306;2023-04-06T18:08:11;101045.72;;;9.25;76.48
27040;BME280;14589;51.578;7.306;2023-04-06T18:10:43;101048.47;;;9.14;76.41
27040;BME280;14589;51.578;7.306;2023-04-06T18:13:15;101045.66;;;9.16;77.58
27040;BME280;14589;51.578;7.306;2023-04-06T18:15:46;101049.00;;;9.08;77.21
27040;BME280;14589;51.578;7.306;2023-04-06T18:18:16;101046.47;;;9.07;77.51
27040;BME280;14589;51.578;7.306;2023-04-06T18:20:46;101034.69;;;8.97;78.10